Enter the Airport ICAO Code

Search by Airport or City

Current Weather

LEVC | Valencia Airport

Valencia, Valencian Community, Spain

Last Update 30 Minutes Ago

Partly Cloudy Sky

Temperature of 25 ºC

Light Winds from North

Temperature

25 ºC

Dew Point Temperature

19 ºC

Relative Humidity

69.51 %

Wind Direction

North (350º, Ranging from 250º to 050º)

Wind Velocity

7 km/h (04 kt)

Gusts

None

Visibility

Greater than 10 Kilometers

Sea Level Pressure

1015 hPa (Hectopascals)

Layers of Clouds

30% to 60% of Sky Covered from 610 mts (2000 ft) Above Ground Level.

METAR LEVC 191130Z 35004KT 250V050 9999 SCT020 25/19 Q1015 NOSIG

Weather Forecast

LEVC | Valencia Airport

Valencia, Valencian Community, Spain

Forecast valid for the next 24 Hours

From now on it is expected:

Sky with Few Clouds

Light to Moderate Winds from East

From now on it is expected 3 hours with intermittent periods of:

Rain

In 3 hours it is expected the begining of 3 hours with intermittent periods of:

Rain

Moderate Winds from Variable Directions with Gusts

In 10 hours it is expected the begining of 6 hours with intermittent periods of:

Thunderstorm with Rain

Maximum Temperature

28 ºC in 0 Hours

Minimum Temperature

19 ºC in 18 Hours

TAF LEVC 191100Z 1912/2012 11008KT 9999 FEW010 TX28/1912Z TN19/2006Z PROB30 TEMPO 1912/1915 RA FEW050TCU PROB30 TEMPO 1915/1918 VRB15G25KT 4000 SHRA FEW050CB PROB30 TEMPO 1922/2004 4000 TSRA FEW050CB